Time;durP1;ratioP1;P1;durP2;ratioP2;P2;SDS_P1;SDS_P2;PMS_P1;PMS_P2;Temp;Humidity;BMP_temperature;BMP_pressure;BME280_temperature;BME280_humidity;BME280_pressure;Samples;Min_cycle;Max_cycle;Signal;HPM_P1;HPM_P2
2023/04/17 13:09:32;;;;;;;513.97;425.80;;;;;;;;;;5047646;28;21283;-84
2023/04/17 13:11:58;;;;;;;510.08;404.27;;;;;;;;;;5057475;28;20056;-84
2023/04/17 13:14:24;;;;;;;505.60;385.63;;;;;;;;;;5040186;28;20036;-83
2023/04/17 13:16:50;;;;;;;503.02;375.65;;;;;;;;;;5039093;28;20048;-84
2023/04/17 13:19:16;;;;;;;501.45;376.65;;;;;;;;;;5056360;28;20412;-83
2023/04/17 13:21:43;;;;;;;503.27;378.15;;;;;;;;;;5038815;28;20099;-84
2023/04/17 13:24:13;;;;;;;499.20;366.83;;;;;;;;;;5057832;28;20045;-87
2023/04/17 13:26:39;;;;;;;501.08;368.98;;;;;;;;;;5040128;28;20414;-85
2023/04/17 13:29:05;;;;;;;501.83;371.85;;;;;;;;;;5038432;28;20041;-84
2023/04/17 13:31:31;;;;;;;501.02;369.70;;;;;;;;;;5069656;28;20106;-85
2023/04/17 13:33:57;;;;;;;498.05;359.70;;;;;;;;;;5058474;28;20049;-80
2023/04/17 13:36:23;;;;;;;497.35;362.05;;;;;;;;;;5023120;28;21364;-80
2023/04/17 13:38:50;;;;;;;496.77;356.80;;;;;;;;;;5057515;28;20116;-83
2023/04/17 13:41:16;;;;;;;498.77;360.45;;;;;;;;;;5040942;28;20184;-80
2023/04/17 13:43:42;;;;;;;495.77;353.83;;;;;;;;;;5056359;28;20087;-83
2023/04/17 13:46:08;;;;;;;497.75;357.95;;;;;;;;;;5072422;28;20048;-81
2023/04/17 13:48:34;;;;;;;500.08;364.60;;;;;;;;;;5057681;28;20132;-82
2023/04/17 13:51:00;;;;;;;496.42;359.92;;;;;;;;;;5039158;28;20110;-83
2023/04/17 13:53:26;;;;;;;496.55;359.50;;;;;;;;;;5038305;28;20654;-84
2023/04/17 13:55:52;;;;;;;499.02;366.33;;;;;;;;;;5039109;28;20071;-83
2023/04/17 13:58:19;;;;;;;496.80;360.55;;;;;;;;;;5039321;28;20681;-83
2023/04/17 14:00:45;;;;;;;496.40;363.20;;;;;;;;;;5038726;28;20185;-82
2023/04/17 14:03:11;;;;;;;500.58;373.83;;;;;;;;;;5057425;28;20059;-83
2023/04/17 14:05:37;;;;;;;498.23;366.15;;;;;;;;;;5039422;28;20102;-84
2023/04/17 14:08:03;;;;;;;497.70;367.48;;;;;;;;;;5027924;28;20064;-79
2023/04/17 14:10:30;;;;;;;502.00;376.17;;;;;;;;;;5025462;28;20422;-80
2023/04/17 14:12:56;;;;;;;499.75;369.00;;;;;;;;;;5043024;28;20114;-80
2023/04/17 14:15:22;;;;;;;498.25;368.50;;;;;;;;;;5025193;28;20053;-80
2023/04/17 14:17:48;;;;;;;501.15;369.85;;;;;;;;;;5026089;28;20068;-80
2023/04/17 14:20:16;;;;;;;501.10;375.60;;;;;;;;;;5024444;28;20049;-83
2023/04/17 14:22:42;;;;;;;498.75;370.58;;;;;;;;;;5026116;28;20204;-88
2023/04/17 14:25:09;;;;;;;500.42;369.40;;;;;;;;;;5044338;28;20056;-84
2023/04/17 14:27:35;;;;;;;506.42;374.50;;;;;;;;;;5043815;28;20640;-81
2023/04/17 14:30:01;;;;;;;495.75;359.77;;;;;;;;;;5026389;28;20333;-81
2023/04/17 14:32:27;;;;;;;497.27;363.08;;;;;;;;;;5042051;28;20051;-81
2023/04/17 14:34:54;;;;;;;500.90;372.85;;;;;;;;;;5023361;28;20076;-82
2023/04/17 14:37:20;;;;;;;496.05;363.38;;;;;;;;;;5042390;28;20054;-82
2023/04/17 14:39:46;;;;;;;498.38;367.02;;;;;;;;;;5024527;28;20036;-82
2023/04/17 14:42:12;;;;;;;498.15;367.77;;;;;;;;;;5025264;28;20108;-82
2023/04/17 14:44:38;;;;;;;499.88;370.02;;;;;;;;;;5025573;28;20041;-82
2023/04/17 14:47:04;;;;;;;496.35;363.55;;;;;;;;;;5022669;28;20044;-81
2023/04/17 14:49:31;;;;;;;497.10;367.38;;;;;;;;;;5024096;28;20049;-84
2023/04/17 14:51:57;;;;;;;497.38;366.65;;;;;;;;;;5044362;28;20045;-84
2023/04/17 14:54:23;;;;;;;496.75;363.67;;;;;;;;;;5025678;28;21813;-85
2023/04/17 14:56:49;;;;;;;495.83;357.85;;;;;;;;;;5025794;28;20048;-82
2023/04/17 14:59:15;;;;;;;495.27;360.08;;;;;;;;;;5056316;28;20110;-85
2023/04/17 15:01:41;;;;;;;501.98;371.38;;;;;;;;;;5040892;28;20037;-81
2023/04/17 15:04:07;;;;;;;494.60;355.33;;;;;;;;;;5022782;28;20051;-79
2023/04/17 15:06:33;;;;;;;496.17;356.27;;;;;;;;;;5025090;28;20075;-79
2023/04/17 15:08:59;;;;;;;497.30;364.63;;;;;;;;;;5020653;28;20057;-80
2023/04/17 15:11:25;;;;;;;496.92;359.90;;;;;;;;;;5040610;28;20045;-80
2023/04/17 15:13:51;;;;;;;495.67;356.77;;;;;;;;;;5022007;28;20041;-80
2023/04/17 15:16:17;;;;;;;496.73;358.73;;;;;;;;;;5041225;28;20121;-85
2023/04/17 15:18:44;;;;;;;497.50;359.38;;;;;;;;;;5022474;28;20139;-82
2023/04/17 15:21:10;;;;;;;493.40;355.25;;;;;;;;;;5025117;28;20045;-81
2023/04/17 15:23:36;;;;;;;494.10;354.48;;;;;;;;;;5025107;28;20260;-77
2023/04/17 15:26:02;;;;;;;495.38;352.30;;;;;;;;;;5023725;28;20631;-78
2023/04/17 15:28:29;;;;;;;493.20;349.13;;;;;;;;;;5042808;28;20183;-78
2023/04/17 15:30:55;;;;;;;496.50;351.80;;;;;;;;;;5022181;28;20700;-77
2023/04/17 15:33:21;;;;;;;494.45;348.33;;;;;;;;;;5042648;28;20123;-79
2023/04/17 15:35:53;;;;;;;490.42;341.13;;;;;;;;;;5024649;28;20047;-78
2023/04/17 15:38:19;;;;;;;494.13;349.10;;;;;;;;;;5023518;28;20780;-78
